sensor_id;sensor_type;location;lat;lon;timestamp;P1;durP1;ratioP1;P2;durP2;ratioP2
295;SDS011;132;48.770;9.200;2023-04-12T00:01:41;8.55;;;3.05;;
295;SDS011;132;48.770;9.200;2023-04-12T00:04:07;11.07;;;3.15;;
295;SDS011;132;48.770;9.200;2023-04-12T00:06:34;8.50;;;3.38;;
295;SDS011;132;48.770;9.200;2023-04-12T00:09:01;8.45;;;2.97;;
295;SDS011;132;48.770;9.200;2023-04-12T00:11:29;7.00;;;2.63;;
295;SDS011;132;48.770;9.200;2023-04-12T00:13:56;5.10;;;3.03;;
295;SDS011;132;48.770;9.200;2023-04-12T00:16:23;9.38;;;3.30;;
295;SDS011;132;48.770;9.200;2023-04-12T00:18:49;5.43;;;2.80;;
295;SDS011;132;48.770;9.200;2023-04-12T00:21:16;6.13;;;2.70;;
295;SDS011;132;48.770;9.200;2023-04-12T00:23:44;6.07;;;2.85;;
295;SDS011;132;48.770;9.200;2023-04-12T00:26:12;10.23;;;2.85;;
295;SDS011;132;48.770;9.200;2023-04-12T00:28:41;7.65;;;2.88;;
295;SDS011;132;48.770;9.200;2023-04-12T00:31:08;6.00;;;2.92;;
295;SDS011;132;48.770;9.200;2023-04-12T00:33:34;5.68;;;2.80;;
295;SDS011;132;48.770;9.200;2023-04-12T00:36:01;6.95;;;3.17;;
295;SDS011;132;48.770;9.200;2023-04-12T00:38:27;8.65;;;3.25;;
295;SDS011;132;48.770;9.200;2023-04-12T00:40:54;7.38;;;2.60;;
295;SDS011;132;48.770;9.200;2023-04-12T00:43:20;11.27;;;3.17;;
295;SDS011;132;48.770;9.200;2023-04-12T00:45:48;7.22;;;3.15;;
295;SDS011;132;48.770;9.200;2023-04-12T00:48:15;5.85;;;3.05;;
295;SDS011;132;48.770;9.200;2023-04-12T00:50:43;7.43;;;3.30;;
295;SDS011;132;48.770;9.200;2023-04-12T00:53:12;7.60;;;2.90;;
295;SDS011;132;48.770;9.200;2023-04-12T00:55:39;7.38;;;3.20;;
295;SDS011;132;48.770;9.200;2023-04-12T00:58:08;7.80;;;3.45;;
295;SDS011;132;48.770;9.200;2023-04-12T01:00:35;7.00;;;3.22;;
295;SDS011;132;48.770;9.200;2023-04-12T01:03:01;6.72;;;3.25;;
295;SDS011;132;48.770;9.200;2023-04-12T01:05:31;5.63;;;3.00;;
295;SDS011;132;48.770;9.200;2023-04-12T01:08:08;7.65;;;3.00;;
295;SDS011;132;48.770;9.200;2023-04-12T01:14:06;5.53;;;2.80;;
295;SDS011;132;48.770;9.200;2023-04-12T01:16:41;9.07;;;3.38;;
295;SDS011;132;48.770;9.200;2023-04-12T01:19:22;8.80;;;3.40;;
295;SDS011;132;48.770;9.200;2023-04-12T01:27:49;5.68;;;2.85;;
295;SDS011;132;48.770;9.200;2023-04-12T01:30:19;3.80;;;2.80;;
295;SDS011;132;48.770;9.200;2023-04-12T01:32:48;5.32;;;3.03;;
295;SDS011;132;48.770;9.200;2023-04-12T01:35:16;7.68;;;3.00;;
295;SDS011;132;48.770;9.200;2023-04-12T01:37:45;6.63;;;2.80;;
295;SDS011;132;48.770;9.200;2023-04-12T01:40:12;8.85;;;3.28;;
295;SDS011;132;48.770;9.200;2023-04-12T01:42:39;4.68;;;3.00;;
295;SDS011;132;48.770;9.200;2023-04-12T01:45:05;7.40;;;3.05;;
295;SDS011;132;48.770;9.200;2023-04-12T01:47:32;6.53;;;2.90;;
295;SDS011;132;48.770;9.200;2023-04-12T01:50:02;7.82;;;2.72;;
295;SDS011;132;48.770;9.200;2023-04-12T01:52:48;4.63;;;2.78;;
295;SDS011;132;48.770;9.200;2023-04-12T01:55:21;9.88;;;2.88;;
295;SDS011;132;48.770;9.200;2023-04-12T01:57:50;6.57;;;3.47;;
295;SDS011;132;48.770;9.200;2023-04-12T02:00:18;10.65;;;4.05;;
295;SDS011;132;48.770;9.200;2023-04-12T02:02:45;9.90;;;3.13;;
295;SDS011;132;48.770;9.200;2023-04-12T02:05:12;8.10;;;3.13;;
295;SDS011;132;48.770;9.200;2023-04-12T02:07:39;6.85;;;3.05;;
295;SDS011;132;48.770;9.200;2023-04-12T02:10:06;11.63;;;3.00;;
295;SDS011;132;48.770;9.200;2023-04-12T02:12:38;8.65;;;3.83;;
295;SDS011;132;48.770;9.200;2023-04-12T02:15:05;10.32;;;3.50;;
295;SDS011;132;48.770;9.200;2023-04-12T02:17:33;4.93;;;3.47;;
295;SDS011;132;48.770;9.200;2023-04-12T02:20:03;7.40;;;3.28;;
295;SDS011;132;48.770;9.200;2023-04-12T02:22:36;6.18;;;2.88;;
295;SDS011;132;48.770;9.200;2023-04-12T02:25:03;6.25;;;3.33;;
295;SDS011;132;48.770;9.200;2023-04-12T02:27:31;10.00;;;3.25;;
295;SDS011;132;48.770;9.200;2023-04-12T02:30:01;7.05;;;3.22;;
295;SDS011;132;48.770;9.200;2023-04-12T02:32:32;5.97;;;3.08;;
295;SDS011;132;48.770;9.200;2023-04-12T02:35:10;11.68;;;3.78;;
295;SDS011;132;48.770;9.200;2023-04-12T02:37:46;9.20;;;3.35;;
295;SDS011;132;48.770;9.200;2023-04-12T02:40:13;10.50;;;3.58;;
295;SDS011;132;48.770;9.200;2023-04-12T02:42:41;6.80;;;3.55;;
295;SDS011;132;48.770;9.200;2023-04-12T02:45:09;7.30;;;3.03;;
295;SDS011;132;48.770;9.200;2023-04-12T02:47:36;9.25;;;3.35;;
295;SDS011;132;48.770;9.200;2023-04-12T02:50:05;7.88;;;3.50;;
295;SDS011;132;48.770;9.200;2023-04-12T02:52:43;7.10;;;3.35;;
295;SDS011;132;48.770;9.200;2023-04-12T02:55:11;8.95;;;3.53;;
295;SDS011;132;48.770;9.200;2023-04-12T02:57:38;6.07;;;2.92;;
295;SDS011;132;48.770;9.200;2023-04-12T03:00:06;8.57;;;3.80;;
295;SDS011;132;48.770;9.200;2023-04-12T03:02:46;9.52;;;3.50;;
295;SDS011;132;48.770;9.200;2023-04-12T03:05:25;14.13;;;3.90;;
295;SDS011;132;48.770;9.200;2023-04-12T03:07:52;7.78;;;3.78;;
295;SDS011;132;48.770;9.200;2023-04-12T03:10:24;7.20;;;3.92;;
295;SDS011;132;48.770;9.200;2023-04-12T03:13:00;9.13;;;3.20;;
295;SDS011;132;48.770;9.200;2023-04-12T03:15:47;6.00;;;3.58;;
295;SDS011;132;48.770;9.200;2023-04-12T03:18:17;10.05;;;3.85;;
295;SDS011;132;48.770;9.200;2023-04-12T03:20:50;6.05;;;3.20;;
295;SDS011;132;48.770;9.200;2023-04-12T03:23:17;6.45;;;3.00;;
295;SDS011;132;48.770;9.200;2023-04-12T03:25:49;7.90;;;4.07;;
295;SDS011;132;48.770;9.200;2023-04-12T03:28:34;6.60;;;3.13;;
295;SDS011;132;48.770;9.200;2023-04-12T03:31:04;5.68;;;3.47;;
295;SDS011;132;48.770;9.200;2023-04-12T03:33:44;5.95;;;3.58;;
295;SDS011;132;48.770;9.200;2023-04-12T03:36:21;7.75;;;3.55;;
295;SDS011;132;48.770;9.200;2023-04-12T03:38:53;5.97;;;3.78;;
295;SDS011;132;48.770;9.200;2023-04-12T03:41:21;7.80;;;3.53;;
295;SDS011;132;48.770;9.200;2023-04-12T03:43:50;6.78;;;3.78;;
295;SDS011;132;48.770;9.200;2023-04-12T03:46:18;7.97;;;4.60;;
295;SDS011;132;48.770;9.200;2023-04-12T03:48:51;7.32;;;4.00;;
295;SDS011;132;48.770;9.200;2023-04-12T03:51:20;8.50;;;3.92;;
295;SDS011;132;48.770;9.200;2023-04-12T03:53:47;4.18;;;3.33;;
295;SDS011;132;48.770;9.200;2023-04-12T03:56:15;8.30;;;3.45;;
295;SDS011;132;48.770;9.200;2023-04-12T03:58:44;7.88;;;3.70;;
295;SDS011;132;48.770;9.200;2023-04-12T04:01:12;6.97;;;4.22;;
295;SDS011;132;48.770;9.200;2023-04-12T04:03:43;7.00;;;3.70;;
295;SDS011;132;48.770;9.200;2023-04-12T04:06:30;8.02;;;3.92;;
295;SDS011;132;48.770;9.200;2023-04-12T04:08:56;7.20;;;3.55;;
295;SDS011;132;48.770;9.200;2023-04-12T04:11:24;9.43;;;3.60;;
295;SDS011;132;48.770;9.200;2023-04-12T04:13:57;7.88;;;3.72;;
295;SDS011;132;48.770;9.200;2023-04-12T04:16:23;10.00;;;4.25;;
295;SDS011;132;48.770;9.200;2023-04-12T04:18:51;7.88;;;4.10;;
295;SDS011;132;48.770;9.200;2023-04-12T04:21:19;7.90;;;4.05;;
295;SDS011;132;48.770;9.200;2023-04-12T04:23:48;6.50;;;3.95;;
295;SDS011;132;48.770;9.200;2023-04-12T04:26:17;8.48;;;4.00;;
295;SDS011;132;48.770;9.200;2023-04-12T04:28:59;9.40;;;4.82;;
295;SDS011;132;48.770;9.200;2023-04-12T04:31:34;11.63;;;4.85;;
295;SDS011;132;48.770;9.200;2023-04-12T04:34:03;9.10;;;4.45;;
295;SDS011;132;48.770;9.200;2023-04-12T04:36:32;8.20;;;4.55;;
295;SDS011;132;48.770;9.200;2023-04-12T04:39:00;7.47;;;4.55;;
295;SDS011;132;48.770;9.200;2023-04-12T04:41:38;6.03;;;4.30;;
295;SDS011;132;48.770;9.200;2023-04-12T04:44:09;7.70;;;4.05;;
295;SDS011;132;48.770;9.200;2023-04-12T04:46:41;7.55;;;4.50;;
295;SDS011;132;48.770;9.200;2023-04-12T04:49:07;6.90;;;4.00;;
295;SDS011;132;48.770;9.200;2023-04-12T04:51:34;6.55;;;4.20;;
295;SDS011;132;48.770;9.200;2023-04-12T04:54:02;5.68;;;3.90;;
295;SDS011;132;48.770;9.200;2023-04-12T04:56:29;7.00;;;3.88;;
295;SDS011;132;48.770;9.200;2023-04-12T04:58:57;4.82;;;3.40;;
295;SDS011;132;48.770;9.200;2023-04-12T05:01:25;6.30;;;4.20;;
295;SDS011;132;48.770;9.200;2023-04-12T05:03:53;8.18;;;4.30;;
295;SDS011;132;48.770;9.200;2023-04-12T05:06:21;6.57;;;3.85;;
295;SDS011;132;48.770;9.200;2023-04-12T05:08:48;9.13;;;4.18;;
295;SDS011;132;48.770;9.200;2023-04-12T05:11:17;7.85;;;4.03;;
295;SDS011;132;48.770;9.200;2023-04-12T05:13:44;5.97;;;3.85;;
295;SDS011;132;48.770;9.200;2023-04-12T05:16:11;6.47;;;4.30;;
295;SDS011;132;48.770;9.200;2023-04-12T05:18:38;6.18;;;4.03;;
295;SDS011;132;48.770;9.200;2023-04-12T05:21:05;6.70;;;3.67;;
295;SDS011;132;48.770;9.200;2023-04-12T05:23:35;6.25;;;3.88;;
295;SDS011;132;48.770;9.200;2023-04-12T05:26:03;6.88;;;4.10;;
295;SDS011;132;48.770;9.200;2023-04-12T05:28:30;6.93;;;4.30;;
295;SDS011;132;48.770;9.200;2023-04-12T05:30:57;5.82;;;3.85;;
295;SDS011;132;48.770;9.200;2023-04-12T05:33:32;5.20;;;3.78;;
295;SDS011;132;48.770;9.200;2023-04-12T05:36:00;7.25;;;4.07;;
295;SDS011;132;48.770;9.200;2023-04-12T05:38:28;7.45;;;4.03;;
295;SDS011;132;48.770;9.200;2023-04-12T05:40:57;6.28;;;3.70;;
295;SDS011;132;48.770;9.200;2023-04-12T05:43:24;6.40;;;4.22;;
295;SDS011;132;48.770;9.200;2023-04-12T05:45:50;9.82;;;4.60;;
295;SDS011;132;48.770;9.200;2023-04-12T05:48:20;8.15;;;4.68;;
295;SDS011;132;48.770;9.200;2023-04-12T05:50:50;6.57;;;4.45;;
295;SDS011;132;48.770;9.200;2023-04-12T05:53:17;7.15;;;4.47;;
295;SDS011;132;48.770;9.200;2023-04-12T05:55:43;5.95;;;4.28;;
295;SDS011;132;48.770;9.200;2023-04-12T05:58:11;6.25;;;4.43;;
295;SDS011;132;48.770;9.200;2023-04-12T06:00:39;6.00;;;3.80;;
295;SDS011;132;48.770;9.200;2023-04-12T06:03:10;6.35;;;3.90;;
295;SDS011;132;48.770;9.200;2023-04-12T06:05:37;6.68;;;4.20;;
295;SDS011;132;48.770;9.200;2023-04-12T06:08:03;5.18;;;3.90;;
295;SDS011;132;48.770;9.200;2023-04-12T06:10:30;5.10;;;3.55;;
295;SDS011;132;48.770;9.200;2023-04-12T06:12:57;5.55;;;3.30;;
295;SDS011;132;48.770;9.200;2023-04-12T06:15:24;4.55;;;3.88;;
295;SDS011;132;48.770;9.200;2023-04-12T06:17:53;7.25;;;3.83;;
295;SDS011;132;48.770;9.200;2023-04-12T06:20:20;6.53;;;3.65;;
295;SDS011;132;48.770;9.200;2023-04-12T06:22:47;4.45;;;3.30;;
295;SDS011;132;48.770;9.200;2023-04-12T06:25:16;6.78;;;4.28;;
295;SDS011;132;48.770;9.200;2023-04-12T06:27:45;4.90;;;3.70;;
295;SDS011;132;48.770;9.200;2023-04-12T06:30:13;6.28;;;3.75;;
295;SDS011;132;48.770;9.200;2023-04-12T06:32:40;5.45;;;3.50;;
295;SDS011;132;48.770;9.200;2023-04-12T06:35:07;5.60;;;3.50;;
295;SDS011;132;48.770;9.200;2023-04-12T06:37:33;10.32;;;3.63;;
295;SDS011;132;48.770;9.200;2023-04-12T06:40:00;5.50;;;3.65;;
295;SDS011;132;48.770;9.200;2023-04-12T06:42:26;6.30;;;3.60;;
295;SDS011;132;48.770;9.200;2023-04-12T06:44:54;6.07;;;3.45;;
295;SDS011;132;48.770;9.200;2023-04-12T06:47:23;7.35;;;3.97;;
295;SDS011;132;48.770;9.200;2023-04-12T06:49:50;6.45;;;3.80;;
295;SDS011;132;48.770;9.200;2023-04-12T06:52:22;10.80;;;3.72;;
295;SDS011;132;48.770;9.200;2023-04-12T06:54:50;9.05;;;4.20;;
295;SDS011;132;48.770;9.200;2023-04-12T06:57:16;4.97;;;3.35;;
295;SDS011;132;48.770;9.200;2023-04-12T06:59:43;4.63;;;3.30;;
295;SDS011;132;48.770;9.200;2023-04-12T07:02:09;5.90;;;4.00;;
295;SDS011;132;48.770;9.200;2023-04-12T07:04:36;6.43;;;3.70;;
295;SDS011;132;48.770;9.200;2023-04-12T07:07:02;7.45;;;4.00;;
295;SDS011;132;48.770;9.200;2023-04-12T07:09:29;6.68;;;3.90;;
295;SDS011;132;48.770;9.200;2023-04-12T07:11:57;6.30;;;3.28;;
295;SDS011;132;48.770;9.200;2023-04-12T07:14:25;9.20;;;3.88;;
295;SDS011;132;48.770;9.200;2023-04-12T07:16:51;6.82;;;4.10;;
295;SDS011;132;48.770;9.200;2023-04-12T07:19:18;5.57;;;3.42;;
295;SDS011;132;48.770;9.200;2023-04-12T07:21:44;3.22;;;2.90;;
295;SDS011;132;48.770;9.200;2023-04-12T07:24:11;7.43;;;3.47;;
295;SDS011;132;48.770;9.200;2023-04-12T07:26:37;7.65;;;3.78;;
295;SDS011;132;48.770;9.200;2023-04-12T07:29:03;7.55;;;3.80;;
295;SDS011;132;48.770;9.200;2023-04-12T07:31:30;5.18;;;3.22;;
295;SDS011;132;48.770;9.200;2023-04-12T07:33:56;4.82;;;3.60;;
295;SDS011;132;48.770;9.200;2023-04-12T07:36:22;5.90;;;3.47;;
295;SDS011;132;48.770;9.200;2023-04-12T07:38:49;6.40;;;3.80;;
295;SDS011;132;48.770;9.200;2023-04-12T07:41:23;5.55;;;3.55;;
295;SDS011;132;48.770;9.200;2023-04-12T07:43:49;4.68;;;3.50;;
295;SDS011;132;48.770;9.200;2023-04-12T07:46:16;5.43;;;3.00;;
295;SDS011;132;48.770;9.200;2023-04-12T07:48:42;5.93;;;2.95;;
295;SDS011;132;48.770;9.200;2023-04-12T07:51:08;3.88;;;2.80;;
295;SDS011;132;48.770;9.200;2023-04-12T07:53:35;5.88;;;3.30;;
295;SDS011;132;48.770;9.200;2023-04-12T07:56:01;8.25;;;3.50;;
295;SDS011;132;48.770;9.200;2023-04-12T07:58:31;5.53;;;3.50;;
295;SDS011;132;48.770;9.200;2023-04-12T08:00:58;3.90;;;3.13;;
295;SDS011;132;48.770;9.200;2023-04-12T08:03:25;5.35;;;2.92;;
295;SDS011;132;48.770;9.200;2023-04-12T08:05:51;5.15;;;3.20;;
295;SDS011;132;48.770;9.200;2023-04-12T08:08:18;4.35;;;2.50;;
295;SDS011;132;48.770;9.200;2023-04-12T08:10:48;3.88;;;2.90;;
295;SDS011;132;48.770;9.200;2023-04-12T08:13:15;5.50;;;3.05;;
295;SDS011;132;48.770;9.200;2023-04-12T08:15:42;6.53;;;3.22;;
295;SDS011;132;48.770;9.200;2023-04-12T08:18:09;4.60;;;2.75;;
295;SDS011;132;48.770;9.200;2023-04-12T08:20:35;4.28;;;2.90;;
295;SDS011;132;48.770;9.200;2023-04-12T08:23:05;12.48;;;3.05;;
295;SDS011;132;48.770;9.200;2023-04-12T08:25:32;3.20;;;2.30;;
295;SDS011;132;48.770;9.200;2023-04-12T08:27:59;3.90;;;2.40;;
295;SDS011;132;48.770;9.200;2023-04-12T08:30:25;5.63;;;2.63;;
295;SDS011;132;48.770;9.200;2023-04-12T08:32:52;4.20;;;2.30;;
295;SDS011;132;48.770;9.200;2023-04-12T08:35:19;4.60;;;3.00;;
295;SDS011;132;48.770;9.200;2023-04-12T08:37:45;4.45;;;2.60;;
295;SDS011;132;48.770;9.200;2023-04-12T08:40:12;5.18;;;2.60;;
295;SDS011;132;48.770;9.200;2023-04-12T08:42:38;3.60;;;2.70;;
295;SDS011;132;48.770;9.200;2023-04-12T08:45:13;3.58;;;2.83;;
295;SDS011;132;48.770;9.200;2023-04-12T08:47:40;4.35;;;3.13;;
295;SDS011;132;48.770;9.200;2023-04-12T08:50:11;5.47;;;3.05;;
295;SDS011;132;48.770;9.200;2023-04-12T08:52:39;7.53;;;3.50;;
295;SDS011;132;48.770;9.200;2023-04-12T08:55:17;3.65;;;2.70;;
295;SDS011;132;48.770;9.200;2023-04-12T08:57:47;3.90;;;2.63;;
295;SDS011;132;48.770;9.200;2023-04-12T09:00:32;4.00;;;2.65;;
295;SDS011;132;48.770;9.200;2023-04-12T09:02:59;4.38;;;2.63;;
295;SDS011;132;48.770;9.200;2023-04-12T09:05:26;4.28;;;2.60;;
295;SDS011;132;48.770;9.200;2023-04-12T09:07:57;4.13;;;2.70;;
295;SDS011;132;48.770;9.200;2023-04-12T09:10:30;4.35;;;2.58;;
295;SDS011;132;48.770;9.200;2023-04-12T09:12:58;4.07;;;2.67;;
295;SDS011;132;48.770;9.200;2023-04-12T09:15:25;5.03;;;2.55;;
295;SDS011;132;48.770;9.200;2023-04-12T09:18:05;6.88;;;2.50;;
295;SDS011;132;48.770;9.200;2023-04-12T09:20:37;4.53;;;2.58;;
295;SDS011;132;48.770;9.200;2023-04-12T09:23:15;5.57;;;2.90;;
295;SDS011;132;48.770;9.200;2023-04-12T09:25:42;4.80;;;3.20;;
295;SDS011;132;48.770;9.200;2023-04-12T09:28:17;3.40;;;2.78;;
295;SDS011;132;48.770;9.200;2023-04-12T09:30:45;4.00;;;2.90;;
295;SDS011;132;48.770;9.200;2023-04-12T09:33:17;3.75;;;2.70;;
295;SDS011;132;48.770;9.200;2023-04-12T09:35:44;4.70;;;3.35;;
295;SDS011;132;48.770;9.200;2023-04-12T09:38:11;5.32;;;2.90;;
295;SDS011;132;48.770;9.200;2023-04-12T09:40:38;5.70;;;3.10;;
295;SDS011;132;48.770;9.200;2023-04-12T20:54:47;5.03;;;1.88;;
295;SDS011;132;48.770;9.200;2023-04-12T20:57:15;1.80;;;1.30;;
295;SDS011;132;48.770;9.200;2023-04-12T20:59:46;2.70;;;1.25;;
295;SDS011;132;48.770;9.200;2023-04-12T21:02:15;1.90;;;1.60;;
295;SDS011;132;48.770;9.200;2023-04-12T21:04:42;2.85;;;1.70;;
295;SDS011;132;48.770;9.200;2023-04-12T21:07:10;2.70;;;1.48;;
295;SDS011;132;48.770;9.200;2023-04-12T21:09:37;1.27;;;1.20;;
295;SDS011;132;48.770;9.200;2023-04-12T21:12:04;2.30;;;1.20;;
295;SDS011;132;48.770;9.200;2023-04-12T21:14:33;1.83;;;1.30;;
295;SDS011;132;48.770;9.200;2023-04-12T21:17:03;1.40;;;1.15;;
295;SDS011;132;48.770;9.200;2023-04-12T21:19:31;1.90;;;1.27;;
295;SDS011;132;48.770;9.200;2023-04-12T21:22:04;1.92;;;1.33;;
295;SDS011;132;48.770;9.200;2023-04-12T21:24:32;2.15;;;1.30;;
295;SDS011;132;48.770;9.200;2023-04-12T21:27:04;1.40;;;1.30;;
295;SDS011;132;48.770;9.200;2023-04-12T21:29:34;2.85;;;1.35;;
295;SDS011;132;48.770;9.200;2023-04-12T21:32:08;1.20;;;1.20;;
295;SDS011;132;48.770;9.200;2023-04-12T21:34:35;1.75;;;1.20;;
295;SDS011;132;48.770;9.200;2023-04-12T21:37:02;2.50;;;1.35;;
295;SDS011;132;48.770;9.200;2023-04-12T21:39:29;2.15;;;1.30;;
295;SDS011;132;48.770;9.200;2023-04-12T21:41:57;1.90;;;1.30;;
295;SDS011;132;48.770;9.200;2023-04-12T21:44:24;1.38;;;1.10;;
295;SDS011;132;48.770;9.200;2023-04-12T21:46:51;1.20;;;1.17;;
295;SDS011;132;48.770;9.200;2023-04-12T21:49:18;1.40;;;1.20;;
295;SDS011;132;48.770;9.200;2023-04-12T21:51:45;1.73;;;1.30;;
295;SDS011;132;48.770;9.200;2023-04-12T21:54:14;1.48;;;1.38;;
295;SDS011;132;48.770;9.200;2023-04-12T21:56:41;1.30;;;1.30;;
295;SDS011;132;48.770;9.200;2023-04-12T21:59:08;2.38;;;1.30;;
295;SDS011;132;48.770;9.200;2023-04-12T22:01:36;1.70;;;1.40;;
295;SDS011;132;48.770;9.200;2023-04-12T22:04:02;1.30;;;1.20;;
295;SDS011;132;48.770;9.200;2023-04-12T22:06:29;3.92;;;1.30;;
295;SDS011;132;48.770;9.200;2023-04-12T22:08:56;1.40;;;1.20;;
295;SDS011;132;48.770;9.200;2023-04-12T22:11:27;2.08;;;1.50;;
295;SDS011;132;48.770;9.200;2023-04-12T22:13:55;1.25;;;1.20;;
295;SDS011;132;48.770;9.200;2023-04-12T22:16:23;1.30;;;1.30;;
295;SDS011;132;48.770;9.200;2023-04-12T22:18:49;1.40;;;1.30;;
295;SDS011;132;48.770;9.200;2023-04-12T22:21:17;1.42;;;1.30;;
295;SDS011;132;48.770;9.200;2023-04-12T22:23:44;3.53;;;1.40;;
295;SDS011;132;48.770;9.200;2023-04-12T22:26:11;1.20;;;1.10;;
295;SDS011;132;48.770;9.200;2023-04-12T22:28:38;1.70;;;1.38;;
295;SDS011;132;48.770;9.200;2023-04-12T22:31:07;1.20;;;1.20;;
295;SDS011;132;48.770;9.200;2023-04-12T22:33:39;2.40;;;1.23;;
295;SDS011;132;48.770;9.200;2023-04-12T22:36:06;2.72;;;1.20;;
295;SDS011;132;48.770;9.200;2023-04-12T22:38:33;1.20;;;1.10;;
295;SDS011;132;48.770;9.200;2023-04-12T22:41:01;2.05;;;1.40;;
295;SDS011;132;48.770;9.200;2023-04-12T22:43:30;1.75;;;1.35;;
295;SDS011;132;48.770;9.200;2023-04-12T22:46:08;2.00;;;1.25;;
295;SDS011;132;48.770;9.200;2023-04-12T22:48:42;3.45;;;1.40;;
295;SDS011;132;48.770;9.200;2023-04-12T22:51:22;1.83;;;1.40;;
295;SDS011;132;48.770;9.200;2023-04-12T22:53:53;2.38;;;1.40;;
295;SDS011;132;48.770;9.200;2023-04-12T22:56:25;1.92;;;1.40;;
295;SDS011;132;48.770;9.200;2023-04-12T22:58:55;1.30;;;1.30;;
295;SDS011;132;48.770;9.200;2023-04-12T23:01:25;1.50;;;1.40;;
295;SDS011;132;48.770;9.200;2023-04-12T23:03:54;2.33;;;1.42;;
295;SDS011;132;48.770;9.200;2023-04-12T23:06:21;1.30;;;1.20;;
295;SDS011;132;48.770;9.200;2023-04-12T23:08:47;2.33;;;1.40;;
295;SDS011;132;48.770;9.200;2023-04-12T23:11:14;1.55;;;1.40;;
295;SDS011;132;48.770;9.200;2023-04-12T23:13:41;1.20;;;1.20;;
295;SDS011;132;48.770;9.200;2023-04-12T23:16:08;3.42;;;1.50;;
295;SDS011;132;48.770;9.200;2023-04-12T23:18:35;2.00;;;1.50;;
295;SDS011;132;48.770;9.200;2023-04-12T23:21:02;1.95;;;1.48;;
295;SDS011;132;48.770;9.200;2023-04-12T23:23:29;1.75;;;1.50;;
295;SDS011;132;48.770;9.200;2023-04-12T23:25:56;1.90;;;1.30;;
295;SDS011;132;48.770;9.200;2023-04-12T23:28:24;3.58;;;1.42;;
295;SDS011;132;48.770;9.200;2023-04-12T23:30:51;2.92;;;1.55;;
295;SDS011;132;48.770;9.200;2023-04-12T23:33:20;2.15;;;1.40;;
295;SDS011;132;48.770;9.200;2023-04-12T23:35:48;1.50;;;1.40;;
295;SDS011;132;48.770;9.200;2023-04-12T23:38:17;1.63;;;1.30;;
295;SDS011;132;48.770;9.200;2023-04-12T23:40:57;2.25;;;1.50;;
295;SDS011;132;48.770;9.200;2023-04-12T23:43:29;6.85;;;1.60;;
295;SDS011;132;48.770;9.200;2023-04-12T23:45:57;1.45;;;1.33;;
295;SDS011;132;48.770;9.200;2023-04-12T23:48:25;2.80;;;1.50;;
295;SDS011;132;48.770;9.200;2023-04-12T23:50:55;2.13;;;1.40;;
295;SDS011;132;48.770;9.200;2023-04-12T23:53:26;1.50;;;1.50;;
295;SDS011;132;48.770;9.200;2023-04-12T23:55:56;1.88;;;1.40;;
295;SDS011;132;48.770;9.200;2023-04-12T23:58:23;1.75;;;1.60;;
